Terminal Aerodrome Forecast
Issued by NWS Nashville, TN

Home | Current Version | Previous Version | Text Only | Print | Product List | Glossary On
Versions: 1 2 3 4 5 6 7 8 9 10 11 12 13 14 15 16 17 18 19 20
000
FTUS44 KOHX 252300
TAFCSV
TAF
KCSV 252331Z 2600/2624 16004KT P6SM VCSH SCT040 BKN100
     FM260300 16003KT 4SM BR SCT020 BKN100
      TEMPO 2608/2612 3SM BR BKN015
     FM261400 17011KT P6SM VCSH OVC040
     FM261800 18012G20KT P6SM VCTS BKN040CB=

USA.gov is the U.S. government's official web portal to all federal, state and local government web resources and services.